Time;durP1;ratioP1;P1;durP2;ratioP2;P2;SDS_P1;SDS_P2;PMS_P1;PMS_P2;Temp;Humidity;BMP_temperature;BMP_pressure;BME280_temperature;BME280_humidity;BME280_pressure;Samples;Min_cycle;Max_cycle;Signal;HPM_P1;HPM_P2
2021/07/29 00:01:30;;;;;;;0.10;0.10;;;;;;;22.68;62.53;99076.13;5030308;28;20111;-54
2021/07/29 00:04:16;;;;;;;0.10;0.10;;;;;;;22.64;62.61;99075.63;5029613;28;20542;-53
2021/07/29 00:07:02;;;;;;;0.10;0.10;;;;;;;22.66;62.09;99062.19;5015169;28;20052;-55
2021/07/29 00:09:47;;;;;;;0.13;0.13;;;;;;;22.69;62.45;99073.31;5029950;28;20051;-51
2021/07/29 00:36:23;;;;;;;0.10;0.10;;;;;;;22.71;62.83;99043.84;5046055;28;20852;-55
2021/07/29 00:38:59;;;;;;;0.10;0.10;;;;;;;22.63;63.15;99041.25;5047019;28;20057;-55
2021/07/29 00:41:25;;;;;;;0.10;0.10;;;;;;;22.50;63.18;99009.94;5049326;28;20497;-54
2021/07/29 00:44:04;;;;;;;0.28;0.28;;;;;;;22.62;62.93;99035.09;5049305;28;20052;-54
2021/07/29 00:46:30;;;;;;;0.10;0.10;;;;;;;22.55;63.11;99020.84;5049308;28;20072;-52
2021/07/29 00:48:57;;;;;;;0.45;0.45;;;;;;;22.64;63.03;99035.72;5047687;28;20049;-53
2021/07/29 00:51:24;;;;;;;0.40;0.40;;;;;;;22.64;63.21;99033.06;5049111;28;20480;-54
2021/07/29 00:53:50;;;;;;;0.10;0.10;;;;;;;22.61;63.36;99030.75;5031380;28;20055;-54
2021/07/29 00:56:17;;;;;;;0.75;0.75;;;;;;;22.60;63.26;99031.78;5031221;28;20495;-52
2021/07/29 00:58:43;;;;;;;0.10;0.10;;;;;;;22.60;63.72;99031.78;5049230;28;20076;-57
2021/07/29 01:01:09;;;;;;;0.10;0.10;;;;;;;22.56;63.56;99019.84;5049077;28;20052;-55
2021/07/29 01:03:35;;;;;;;0.10;0.10;;;;;;;22.57;63.57;99023.34;5049291;28;20045;-56
2021/07/29 01:06:01;;;;;;;0.15;0.15;;;;;;;22.60;63.58;99025.63;5050109;28;20055;-52
2021/07/29 01:08:27;;;;;;;0.10;0.10;;;;;;;22.62;63.65;99021.78;5053385;28;20053;-56
2021/07/29 01:10:53;;;;;;;0.25;0.25;;;;;;;22.61;63.54;99016.66;5053151;28;20041;-56
2021/07/29 01:13:19;;;;;;;0.20;0.20;;;;;;;22.58;64.07;99017.81;5052911;28;20541;-56
2021/07/29 01:15:45;;;;;;;0.10;0.10;;;;;;;22.60;63.92;99012.34;5052801;28;20080;-55
2021/07/29 01:18:11;;;;;;;0.10;0.10;;;;;;;22.58;63.97;99017.81;5052907;28;20107;-56
2021/07/29 01:20:37;;;;;;;0.25;0.25;;;;;;;22.58;64.00;99017.81;5052950;28;20055;-56
2021/07/29 01:23:03;;;;;;;0.10;0.10;;;;;;;22.60;64.06;99009.69;5052711;28;20049;-57
2021/07/29 01:25:29;;;;;;;0.20;0.20;;;;;;;22.57;63.89;99010.88;5052843;28;20110;-57
2021/07/29 01:27:54;;;;;;;0.10;0.10;;;;;;;22.56;64.13;99009.22;5052928;28;20053;-56
2021/07/29 01:30:20;;;;;;;0.10;0.10;;;;;;;22.60;64.02;99005.19;5052361;28;20041;-53
2021/07/29 01:32:46;;;;;;;0.10;0.10;;;;;;;22.61;63.90;99001.50;5052784;28;20045;-54
2021/07/29 01:35:12;;;;;;;0.10;0.10;;;;;;;22.63;63.94;99004.81;5052363;28;20049;-56
2021/07/29 01:37:39;;;;;;;0.10;0.10;;;;;;;22.63;64.06;98999.50;5063546;28;20052;-53
2021/07/29 01:40:07;;;;;;;0.10;0.10;;;;;;;22.66;63.76;99009.81;5054661;28;20040;-55
2021/07/29 01:42:34;;;;;;;0.10;0.10;;;;;;;22.65;63.96;99002.78;5072635;28;20072;-52
2021/07/29 01:45:00;;;;;;;0.17;0.17;;;;;;;22.67;63.92;99006.16;5072249;28;20131;-53
2021/07/29 01:47:26;;;;;;;0.10;0.10;;;;;;;22.67;64.11;99007.97;5072523;28;20126;-54
2021/07/29 01:49:53;;;;;;;0.10;0.10;;;;;;;22.68;63.95;99005.13;5072411;28;20056;-55
2021/07/29 01:52:19;;;;;;;0.10;0.10;;;;;;;22.66;64.09;98988.53;5072220;28;20044;-53
2021/07/29 01:54:46;;;;;;;1.45;0.32;;;;;;;22.73;63.92;99000.09;5072162;28;20579;-56
2021/07/29 01:57:12;;;;;;;0.10;0.10;;;;;;;22.69;64.20;98995.31;5072069;28;20052;-56
2021/07/29 01:59:38;;;;;;;0.10;0.10;;;;;;;22.64;64.67;99001.13;5072225;28;20056;-55
2021/07/29 02:02:05;;;;;;;0.10;0.10;;;;;;;22.59;65.10;99003.53;5071975;28;20056;-56
2021/07/29 02:04:30;;;;;;;2.33;0.35;;;;;;;22.52;65.03;98991.94;5072258;28;20048;-55
2021/07/29 02:06:56;;;;;;;0.00;0.00;;;;;;;22.47;65.30;98994.34;5054546;28;20072;-57
2021/07/29 02:09:23;;;;;;;0.10;0.10;;;;;;;22.43;65.23;98981.56;5072114;28;20040;-57
2021/07/29 02:11:52;;;;;;;0.10;0.10;;;;;;;22.52;65.60;99002.59;5072307;28;20082;-54
2021/07/29 02:14:21;;;;;;;0.13;0.13;;;;;;;22.51;65.67;99003.59;5071552;28;20080;-52
2021/07/29 02:16:48;;;;;;;0.65;0.65;;;;;;;22.49;65.76;99004.78;5071859;28;20079;-53
2021/07/29 02:19:14;;;;;;;0.03;0.03;;;;;;;22.49;65.96;99005.59;5071101;28;20055;-55
2021/07/29 02:21:42;;;;;;;0.20;0.20;;;;;;;22.51;65.96;99003.59;5071854;28;20330;-55
2021/07/29 02:24:08;;;;;;;0.10;0.10;;;;;;;22.50;65.67;98996.63;5071637;28;20052;-56
2021/07/29 02:26:34;;;;;;;0.10;0.10;;;;;;;22.51;65.86;99000.13;5071662;28;20143;-54
2021/07/29 02:29:00;;;;;;;0.10;0.10;;;;;;;22.53;66.09;98998.94;5071480;28;20461;-58
2021/07/29 02:31:26;;;;;;;0.25;0.25;;;;;;;22.53;65.77;98998.94;5071719;28;20040;-53
2021/07/29 02:33:52;;;;;;;0.10;0.10;;;;;;;22.55;66.14;99007.53;5071648;28;20045;-54
2021/07/29 02:36:18;;;;;;;0.13;0.13;;;;;;;22.54;65.92;98995.28;5070916;28;20198;-55
2021/07/29 02:38:44;;;;;;;0.10;0.10;;;;;;;22.57;66.02;99005.56;5071604;28;20044;-56
2021/07/29 02:41:10;;;;;;;0.10;0.10;;;;;;;22.56;66.36;98998.56;5071229;28;20080;-52
2021/07/29 02:43:36;;;;;;;0.10;0.10;;;;;;;22.54;66.28;98991.78;5071465;28;20686;-55
2021/07/29 02:46:01;;;;;;;0.10;0.10;;;;;;;22.58;66.61;99004.53;5071076;28;20109;-56
2021/07/29 02:48:28;;;;;;;0.10;0.10;;;;;;;22.68;65.82;99007.78;5071632;28;20748;-56
2021/07/29 02:50:54;;;;;;;0.10;0.10;;;;;;;22.70;65.81;98999.63;5071285;28;20067;-55
2021/07/29 02:53:20;;;;;;;0.10;0.10;;;;;;;22.76;65.59;99005.03;5071020;28;20079;-55
2021/07/29 02:55:46;;;;;;;0.10;0.10;;;;;;;22.81;65.63;99007.97;5071019;28;20052;-54
2021/07/29 02:58:12;;;;;;;0.10;0.10;;;;;;;22.86;65.64;99004.78;5071087;28;20041;-51
2021/07/29 03:00:38;;;;;;;0.20;0.20;;;;;;;22.71;65.63;98975.47;5070962;28;20044;-55
2021/07/29 03:03:04;;;;;;;0.10;0.10;;;;;;;22.84;65.92;99006.78;5052943;28;20044;-55
2021/07/29 03:05:30;;;;;;;0.10;0.10;;;;;;;22.81;66.24;99005.31;5069695;28;20053;-57
2021/07/29 03:07:56;;;;;;;0.10;0.10;;;;;;;22.85;66.01;99008.44;5070926;28;20049;-55
2021/07/29 03:10:22;;;;;;;0.10;0.10;;;;;;;22.86;66.18;99009.28;5070604;28;20469;-52
2021/07/29 03:12:48;;;;;;;0.10;0.10;;;;;;;22.86;65.92;99006.59;5070863;28;20048;-55
2021/07/29 03:15:14;;;;;;;0.20;0.20;;;;;;;22.90;65.84;99007.91;5070317;28;20045;-57
2021/07/29 03:18:00;;;;;;;0.10;0.10;;;;;;;22.85;66.15;99008.44;5070804;28;20468;-55
2021/07/29 03:20:45;;;;;;;0.10;0.10;;;;;;;22.75;66.46;99006.03;5070639;28;20422;-56
2021/07/29 03:23:31;;;;;;;0.03;0.03;;;;;;;22.75;66.84;99011.38;5055809;28;20041;-53
2021/07/29 03:26:17;;;;;;;0.10;0.10;;;;;;;22.76;66.77;99021.03;5070266;28;20041;-54
2021/07/29 03:29:03;;;;;;;0.10;0.10;;;;;;;22.73;66.86;99018.72;5069643;28;20105;-56
2021/07/29 03:31:49;;;;;;;0.00;0.00;;;;;;;22.72;67.20;99025.03;5070474;28;20051;-53
2021/07/29 03:34:35;;;;;;;0.10;0.10;;;;;;;22.71;67.26;99020.72;5070381;28;20056;-55
2021/07/29 03:37:20;;;;;;;0.10;0.10;;;;;;;22.73;67.25;99024.03;5069917;28;20521;-56
2021/07/29 03:40:07;;;;;;;0.20;0.20;;;;;;;22.77;67.08;99021.84;5069953;28;20131;-55
2021/07/29 03:42:52;;;;;;;0.10;0.10;;;;;;;22.83;66.80;99034.44;5070229;28;20518;-55
2021/07/29 03:45:40;;;;;;;0.05;0.05;;;;;;;22.87;66.67;99033.06;5070203;28;20060;-53
2021/07/29 03:48:26;;;;;;;0.10;0.10;;;;;;;22.92;66.33;99037.81;5069983;28;20060;-56
2021/07/29 03:51:12;;;;;;;0.10;0.10;;;;;;;22.94;66.25;99025.97;5069814;28;20064;-51
2021/07/29 03:53:58;;;;;;;0.10;0.10;;;;;;;22.97;65.65;99032.78;5069968;28;20433;-53
2021/07/29 03:56:44;;;;;;;0.10;0.10;;;;;;;23.03;65.17;99029.38;5070112;28;20110;-55
2021/07/29 03:59:30;;;;;;;0.10;0.10;;;;;;;23.05;65.23;99030.03;5070112;28;20052;-57
2021/07/29 04:02:16;;;;;;;0.10;0.10;;;;;;;23.07;64.88;99023.50;5069785;28;20074;-54
2021/07/29 04:05:02;;;;;;;0.10;0.10;;;;;;;23.02;65.62;99031.22;5069721;28;20170;-56
2021/07/29 04:07:48;;;;;;;0.10;0.10;;;;;;;22.96;65.61;99023.97;5069902;28;20048;-52
2021/07/29 04:10:34;;;;;;;0.15;0.15;;;;;;;22.99;65.30;99025.44;5069913;28;20055;-55
2021/07/29 04:13:20;;;;;;;0.10;0.10;;;;;;;23.00;65.81;99032.41;5069486;28;20071;-56
2021/07/29 04:16:06;;;;;;;0.10;0.10;;;;;;;23.07;64.94;99028.81;5069736;28;20052;-54
2021/07/29 04:18:52;;;;;;;0.10;0.10;;;;;;;23.22;64.56;99020.84;5069875;28;20048;-54
2021/07/29 04:21:37;;;;;;;0.17;0.17;;;;;;;23.22;65.15;99027.00;5069778;28;20040;-54
2021/07/29 04:24:23;;;;;;;0.10;0.10;;;;;;;23.20;65.19;99028.19;5069490;28;20044;-55
2021/07/29 04:27:09;;;;;;;0.10;0.10;;;;;;;23.19;65.06;99024.69;5054528;28;20093;-55
2021/07/29 04:29:55;;;;;;;0.00;0.00;;;;;;;23.16;64.69;99016.25;5069420;28;20094;-56
2021/07/29 04:32:41;;;;;;;0.20;0.20;;;;;;;23.25;64.65;99021.28;5069549;28;20080;-55
2021/07/29 04:35:26;;;;;;;0.10;0.10;;;;;;;23.35;64.00;99029.00;5069177;28;20114;-54
2021/07/29 04:38:12;;;;;;;0.10;0.10;;;;;;;23.43;64.00;99028.09;5054003;28;20041;-54
2021/07/29 04:41:05;;;;;;;0.10;0.10;;;;;;;23.56;63.45;99029.06;5069177;28;20048;-55
2021/07/29 04:43:50;;;;;;;0.10;0.10;;;;;;;23.55;63.33;99015.94;5069488;28;20052;-56
2021/07/29 04:46:37;;;;;;;0.10;0.10;;;;;;;23.48;63.43;99012.38;5040793;28;20048;-54
2021/07/29 04:49:23;;;;;;;0.10;0.10;;;;;;;23.49;63.35;99027.34;5069140;28;20135;-53
2021/07/29 04:52:09;;;;;;;0.10;0.10;;;;;;;23.42;63.72;99016.63;5069256;28;20525;-56
2021/07/29 04:54:54;;;;;;;0.10;0.10;;;;;;;23.38;64.10;99020.63;5069111;28;20450;-58
2021/07/29 04:57:40;;;;;;;0.10;0.10;;;;;;;23.30;64.04;99008.22;5069435;28;20050;-57
2021/07/29 05:00:29;;;;;;;0.10;0.10;;;;;;;23.44;63.98;99027.06;5054213;28;20044;-55
2021/07/29 05:02:55;;;;;;;0.00;0.00;;;;;;;23.42;63.62;99024.63;5069293;28;20041;-56
2021/07/29 05:05:22;;;;;;;0.20;0.20;;;;;;;23.50;63.21;99029.00;5068773;28;20055;-56
2021/07/29 05:07:54;;;;;;;0.30;0.30;;;;;;;23.53;63.31;99040.09;5051308;28;20449;-55
2021/07/29 05:10:20;;;;;;;0.10;0.10;;;;;;;23.54;63.24;99031.09;5068732;28;20063;-56
2021/07/29 05:12:46;;;;;;;0.10;0.10;;;;;;;23.54;63.07;99035.59;5069112;28;20040;-57
2021/07/29 05:15:12;;;;;;;0.10;0.10;;;;;;;23.56;62.86;99037.06;5068775;28;20063;-56
2021/07/29 05:17:38;;;;;;;0.10;0.10;;;;;;;23.53;62.87;99024.13;5069184;28;20055;-56
2021/07/29 05:20:05;;;;;;;0.10;0.10;;;;;;;23.53;62.89;99024.13;5068936;28;20054;-56
2021/07/29 05:22:31;;;;;;;0.17;0.17;;;;;;;23.57;63.00;99041.41;5068813;28;20071;-54
2021/07/29 05:24:57;;;;;;;0.10;0.10;;;;;;;23.62;62.78;99038.19;5068900;28;20135;-54
2021/07/29 05:27:23;;;;;;;0.10;0.10;;;;;;;23.68;62.27;99027.59;5068721;28;20060;-56
2021/07/29 05:29:49;;;;;;;0.20;0.20;;;;;;;23.82;61.90;99045.38;5068839;28;20218;-56
2021/07/29 05:32:15;;;;;;;0.20;0.20;;;;;;;23.83;61.69;99041.69;5068769;28;20080;-54
2021/07/29 05:34:41;;;;;;;0.15;0.15;;;;;;;23.89;61.40;99045.44;5051473;28;20048;-57
2021/07/29 05:37:07;;;;;;;0.15;0.15;;;;;;;23.85;61.48;99039.66;5067589;28;20132;-56
2021/07/29 05:39:33;;;;;;;0.10;0.10;;;;;;;24.04;61.00;99037.41;5068708;28;20131;-56
2021/07/29 05:42:00;;;;;;;0.10;0.10;;;;;;;24.20;60.45;99038.00;5068820;28;20048;-57
2021/07/29 05:44:26;;;;;;;0.10;0.10;;;;;;;24.44;59.59;99043.97;5068657;28;20429;-54
2021/07/29 05:46:52;;;;;;;0.10;0.10;;;;;;;24.46;59.38;99042.75;5068784;28;20502;-55
2021/07/29 05:49:18;;;;;;;0.10;0.10;;;;;;;24.39;59.85;99044.53;5068524;28;20048;-54
2021/07/29 05:51:44;;;;;;;0.10;0.10;;;;;;;24.32;59.99;99044.47;5068776;28;20462;-56
2021/07/29 05:54:10;;;;;;;0.10;0.10;;;;;;;24.31;59.84;99047.34;5071626;28;20063;-55
2021/07/29 05:56:36;;;;;;;0.10;0.10;;;;;;;24.31;59.78;99036.69;5072039;28;20095;-56
2021/07/29 05:59:02;;;;;;;0.10;0.10;;;;;;;24.37;59.77;99043.91;5072324;28;20048;-54
2021/07/29 06:01:28;;;;;;;0.10;0.10;;;;;;;24.41;59.68;99045.16;5071974;28;20481;-57
2021/07/29 06:03:55;;;;;;;0.10;0.10;;;;;;;24.47;59.18;99044.41;5072303;28;20534;-57
2021/07/29 06:06:21;;;;;;;0.00;0.00;;;;;;;24.55;58.75;99057.59;5053899;28;20044;-55
2021/07/29 06:08:47;;;;;;;0.10;0.10;;;;;;;24.61;58.75;99053.31;5072056;28;20052;-56
2021/07/29 06:11:13;;;;;;;0.10;0.10;;;;;;;24.68;58.60;99055.03;5071667;28;20036;-55
2021/07/29 06:13:39;;;;;;;0.10;0.10;;;;;;;24.64;58.42;99044.97;5053958;28;20525;-54
2021/07/29 06:16:09;;;;;;;0.00;0.00;;;;;;;24.58;58.66;99051.88;5071851;28;20051;-55
2021/07/29 06:18:41;;;;;;;0.20;0.20;;;;;;;24.47;58.87;99049.75;5054422;28;20111;-55
2021/07/29 06:21:07;;;;;;;0.10;0.10;;;;;;;24.50;58.95;99052.03;5071800;28;20122;-54
2021/07/29 06:23:41;;;;;;;0.15;0.15;;;;;;;24.61;58.53;99043.47;5071867;28;20105;-54
2021/07/29 06:26:09;;;;;;;0.75;0.75;;;;;;;24.68;58.22;99041.69;5071609;28;20510;-56
2021/07/29 06:28:35;;;;;;;0.17;0.17;;;;;;;24.81;57.73;99051.63;5071493;28;20052;-55
2021/07/29 06:31:01;;;;;;;0.20;0.20;;;;;;;24.90;57.46;99047.03;5071445;28;20052;-55
2021/07/29 06:33:27;;;;;;;0.10;0.10;;;;;;;24.92;57.16;99061.00;5053613;28;20048;-56
2021/07/29 06:35:53;;;;;;;0.10;0.10;;;;;;;24.77;57.34;99048.53;5071535;28;20041;-54
2021/07/29 06:38:19;;;;;;;0.20;0.20;;;;;;;24.81;57.18;99060.47;5070964;28;20044;-57
2021/07/29 06:40:46;;;;;;;0.10;0.10;;;;;;;24.86;56.99;99060.78;5071526;28;20040;-57
2021/07/29 06:43:12;;;;;;;0.10;0.10;;;;;;;24.97;56.63;99066.59;5071535;28;20477;-55
2021/07/29 06:45:39;;;;;;;0.10;0.10;;;;;;;24.98;56.49;99054.88;5071118;28;20053;-55
2021/07/29 06:48:05;;;;;;;0.20;0.20;;;;;;;24.91;56.23;99059.34;5071267;28;20122;-56
2021/07/29 06:50:31;;;;;;;0.17;0.17;;;;;;;24.87;56.26;99051.72;5071009;28;20525;-55
2021/07/29 06:52:57;;;;;;;0.10;0.10;;;;;;;24.96;56.19;99070.28;5071458;28;20051;-58
2021/07/29 06:55:23;;;;;;;0.10;0.10;;;;;;;24.87;56.09;99065.06;5070838;28;20548;-55
2021/07/29 06:57:49;;;;;;;0.10;0.10;;;;;;;24.81;56.21;99057.81;5053416;28;20056;-55
2021/07/29 07:00:16;;;;;;;0.00;0.00;;;;;;;24.86;56.07;99063.44;5071039;28;20041;-58
2021/07/29 07:02:42;;;;;;;0.10;0.10;;;;;;;24.91;56.03;99065.50;5071148;28;20139;-59
2021/07/29 07:05:08;;;;;;;0.20;0.20;;;;;;;24.94;55.85;99051.75;5070649;28;20044;-59
2021/07/29 07:07:34;;;;;;;0.13;0.13;;;;;;;25.08;55.47;99061.53;5070817;28;20052;-58
2021/07/29 07:10:00;;;;;;;0.10;0.10;;;;;;;25.22;55.33;99073.13;5070874;28;20048;-58
2021/07/29 07:12:26;;;;;;;0.10;0.10;;;;;;;25.29;55.27;99061.41;5070491;28;20472;-59
2021/07/29 07:14:51;;;;;;;0.10;0.10;;;;;;;25.42;54.74;99071.38;5070882;28;20048;-59
2021/07/29 07:17:18;;;;;;;0.10;0.10;;;;;;;25.54;54.25;99056.44;5070471;28;20045;-59
2021/07/29 07:19:47;;;;;;;0.13;0.13;;;;;;;25.64;53.86;99064.94;5070751;28;20546;-59
2021/07/29 07:22:12;;;;;;;0.15;0.15;;;;;;;25.63;53.82;99065.94;5070604;28;20052;-58
2021/07/29 07:24:39;;;;;;;0.10;0.10;;;;;;;25.56;53.87;99072.28;5070522;28;20054;-59
2021/07/29 07:27:07;;;;;;;0.35;0.35;;;;;;;25.59;53.91;99067.34;5070569;28;20046;-59
2021/07/29 07:29:33;;;;;;;0.10;0.10;;;;;;;25.62;53.83;99069.63;5070537;28;20121;-56
2021/07/29 07:32:00;;;;;;;0.10;0.10;;;;;;;25.62;53.66;99076.84;5052602;28;20052;-60
2021/07/29 07:34:26;;;;;;;0.10;0.10;;;;;;;25.60;53.41;99069.03;5070085;28;20111;-58
2021/07/29 07:36:51;;;;;;;0.10;0.10;;;;;;;25.52;53.44;99055.00;5070095;28;20087;-56
2021/07/29 07:39:17;;;;;;;0.10;0.10;;;;;;;25.58;53.30;99064.91;5070362;28;20513;-60
2021/07/29 07:41:43;;;;;;;0.10;0.10;;;;;;;25.45;53.20;99060.28;5070721;28;20059;-57
2021/07/29 07:44:09;;;;;;;0.17;0.17;;;;;;;25.52;53.29;99082.56;5070470;28;20070;-56
2021/07/29 07:46:35;;;;;;;0.10;0.10;;;;;;;25.60;53.18;99071.69;5069880;28;20506;-55
2021/07/29 07:49:01;;;;;;;0.10;0.10;;;;;;;25.83;52.55;99072.19;5070428;28;20117;-59
2021/07/29 07:51:28;;;;;;;0.10;0.10;;;;;;;26.34;51.15;99063.72;5069924;28;20044;-58
2021/07/29 07:53:54;;;;;;;0.90;0.90;;;;;;;26.61;49.95;99061.84;5069995;28;20063;-56
2021/07/29 07:56:20;;;;;;;0.10;0.10;;;;;;;26.89;49.13;99079.41;5069670;28;20430;-58
2021/07/29 07:58:46;;;;;;;0.10;0.10;;;;;;;26.91;49.33;99073.81;5070085;28;20132;-54
2021/07/29 08:01:14;;;;;;;0.13;0.13;;;;;;;26.93;48.72;99071.75;5052107;28;20053;-56
2021/07/29 08:03:40;;;;;;;0.10;0.10;;;;;;;27.05;47.85;99082.66;5069712;28;20284;-55
2021/07/29 08:06:06;;;;;;;0.10;0.10;;;;;;;26.92;48.33;99070.94;5069842;28;20549;-60
2021/07/29 08:08:32;;;;;;;0.00;0.00;;;;;;;26.79;48.88;99081.63;5069679;28;20049;-60
2021/07/29 08:10:59;;;;;;;0.17;0.17;;;;;;;26.64;49.38;99082.84;5069838;28;20075;-59
2021/07/29 08:13:24;;;;;;;0.20;0.20;;;;;;;26.62;49.30;99087.59;5051733;28;20049;-61
2021/07/29 08:15:51;;;;;;;0.10;0.10;;;;;;;26.67;49.49;99088.63;5069040;28;20048;-61
2021/07/29 08:18:17;;;;;;;0.10;0.10;;;;;;;26.66;49.75;99091.53;5069655;28;20512;-61
2021/07/29 08:20:43;;;;;;;0.10;0.10;;;;;;;26.67;49.39;99085.94;5069338;28;20079;-60
2021/07/29 08:23:09;;;;;;;0.10;0.10;;;;;;;26.59;49.73;99077.31;5069681;28;20051;-59
2021/07/29 08:25:35;;;;;;;0.10;0.10;;;;;;;26.48;50.32;99084.09;5069111;28;20052;-59
2021/07/29 08:28:02;;;;;;;0.10;0.10;;;;;;;26.41;49.99;99083.25;5069490;28;20429;-59
2021/07/29 08:30:47;;;;;;;0.10;0.10;;;;;;;26.45;50.14;99087.19;5069393;28;20139;-60
2021/07/29 08:33:33;;;;;;;0.10;0.10;;;;;;;26.46;49.67;99075.44;5069268;28;20052;-58
2021/07/29 08:36:19;;;;;;;0.10;0.10;;;;;;;26.62;49.64;99082.25;5069139;28;20083;-59
2021/07/29 08:39:05;;;;;;;0.10;0.10;;;;;;;26.67;49.21;99091.31;5069627;28;20076;-59
2021/07/29 08:41:51;;;;;;;0.10;0.10;;;;;;;26.65;49.25;99085.34;5069293;28;20140;-58
2021/07/29 08:44:37;;;;;;;0.40;0.40;;;;;;;26.68;49.03;99094.81;5069155;28;20047;-59
2021/07/29 08:47:26;;;;;;;0.08;0.08;;;;;;;26.72;48.78;99102.25;5069137;28;20044;-59
2021/07/29 08:50:13;;;;;;;0.10;0.10;;;;;;;26.78;48.92;99103.25;5069618;28;20048;-59
2021/07/29 08:52:58;;;;;;;0.10;0.10;;;;;;;26.88;48.89;99107.22;5069342;28;20056;-59
2021/07/29 08:55:48;;;;;;;0.10;0.10;;;;;;;27.11;48.08;99097.91;5069176;28;20056;-57
2021/07/29 08:58:34;;;;;;;0.32;0.32;;;;;;;27.31;47.42;99099.53;5069134;28;20545;-56
2021/07/29 09:01:19;;;;;;;0.10;0.10;;;;;;;27.36;47.48;99104.25;5069128;28;20048;-58
2021/07/29 09:04:10;;;;;;;0.40;0.40;;;;;;;27.38;47.36;99094.16;5054335;28;20064;-57
2021/07/29 09:07:02;;;;;;;0.10;0.10;;;;;;;27.37;47.47;99100.53;5069182;28;20056;-56
2021/07/29 09:09:49;;;;;;;0.10;0.10;;;;;;;27.39;47.17;99099.28;5068170;28;20399;-57
2021/07/29 09:12:35;;;;;;;0.10;0.10;;;;;;;27.39;47.43;99087.72;5068812;28;20062;-55
2021/07/29 09:15:20;;;;;;;0.00;0.00;;;;;;;27.30;47.21;99084.47;5069067;28;20101;-54
2021/07/29 09:18:07;;;;;;;0.10;0.10;;;;;;;27.31;46.94;99096.03;5069201;28;20418;-57
2021/07/29 09:20:52;;;;;;;0.15;0.15;;;;;;;27.31;46.90;99096.03;5054264;28;20518;-53
2021/07/29 09:23:38;;;;;;;0.10;0.10;;;;;;;27.35;46.98;99091.91;5040133;28;20044;-55
2021/07/29 09:26:24;;;;;;;0.10;0.10;;;;;;;27.34;46.93;99084.88;5069069;28;20127;-58
2021/07/29 09:29:22;;;;;;;0.20;0.20;;;;;;;27.48;46.14;99093.75;5058052;28;20102;-55
2021/07/29 09:32:11;;;;;;;0.10;0.10;;;;;;;27.51;46.22;99077.22;5072601;28;20044;-55
2021/07/29 09:34:57;;;;;;;0.10;0.10;;;;;;;27.57;46.40;99079.06;5057842;28;20052;-56
2021/07/29 09:37:50;;;;;;;0.10;0.10;;;;;;;27.55;46.14;99071.25;5060363;28;20238;-57
2021/07/29 09:40:42;;;;;;;0.13;0.13;;;;;;;27.64;45.99;99088.75;5052399;28;20124;-56
2021/07/29 09:43:35;;;;;;;0.10;0.10;;;;;;;27.73;45.36;99092.81;5052296;28;20049;-55
2021/07/29 09:46:22;;;;;;;0.10;0.10;;;;;;;27.69;45.77;99088.91;5052268;28;20140;-56
2021/07/29 09:49:08;;;;;;;0.10;0.10;;;;;;;27.85;45.27;99092.97;5052578;28;20051;-57
2021/07/29 09:51:54;;;;;;;0.10;0.10;;;;;;;28.04;44.56;99080.50;5037683;28;20079;-57
2021/07/29 09:54:46;;;;;;;0.10;0.10;;;;;;;28.01;44.96;99078.25;5052073;28;20057;-57
2021/07/29 09:57:32;;;;;;;0.10;0.10;;;;;;;28.06;45.02;99078.44;5052105;28;20051;-56
2021/07/29 10:00:18;;;;;;;0.10;0.10;;;;;;;28.04;44.48;99092.06;5037581;28;20053;-54
2021/07/29 10:03:07;;;;;;;0.10;0.10;;;;;;;27.99;44.50;99080.31;5052222;28;20049;-55
2021/07/29 10:05:58;;;;;;;0.17;0.17;;;;;;;28.03;44.10;99076.16;5052225;28;20051;-56
2021/07/29 10:08:49;;;;;;;0.10;0.10;;;;;;;28.09;44.34;99061.91;5050941;28;20045;-57
2021/07/29 10:11:36;;;;;;;0.10;0.10;;;;;;;28.15;43.93;99077.13;5037026;28;20522;-57
2021/07/29 10:14:47;;;;;;;0.10;0.10;;;;;;;28.23;43.49;99075.03;5023439;28;20144;-57
2021/07/29 10:17:35;;;;;;;0.32;0.32;;;;;;;28.24;43.41;99078.56;5051759;28;20056;-56
2021/07/29 10:20:23;;;;;;;0.10;0.10;;;;;;;28.20;43.50;99080.03;5051851;28;20056;-55
2021/07/29 10:23:15;;;;;;;0.20;0.20;;;;;;;28.23;43.74;99082.28;5051791;28;20049;-56
2021/07/29 10:26:06;;;;;;;0.10;0.10;;;;;;;28.28;43.78;99071.69;5051625;28;20072;-57
2021/07/29 10:28:52;;;;;;;0.10;0.10;;;;;;;28.23;43.86;99072.34;5051538;28;20136;-56
2021/07/29 10:32:02;;;;;;;0.10;0.10;;;;;;;28.33;43.29;99061.97;5051367;28;20131;-56
2021/07/29 10:34:50;;;;;;;0.20;0.20;;;;;;;28.46;43.22;99079.84;5051541;28;20349;-55
2021/07/29 10:37:43;;;;;;;0.10;0.10;;;;;;;28.42;43.64;99073.25;5064198;28;20049;-58
2021/07/29 10:40:39;;;;;;;0.10;0.10;;;;;;;28.30;43.42;99058.88;5064325;28;20052;-56
2021/07/29 10:43:25;;;;;;;0.13;0.13;;;;;;;28.38;43.40;99077.41;5051456;28;20044;-57
2021/07/29 10:46:11;;;;;;;0.10;0.10;;;;;;;28.31;43.58;99082.81;5051440;28;20057;-57
2021/07/29 10:49:12;;;;;;;0.20;0.20;;;;;;;28.25;43.96;99072.13;5051407;28;20053;-56
2021/07/29 10:52:04;;;;;;;0.85;0.63;;;;;;;28.21;43.94;99070.91;5051266;28;20095;-57
2021/07/29 10:54:52;;;;;;;0.10;0.10;;;;;;;28.11;44.03;99065.22;5050387;28;20057;-57
2021/07/29 10:57:38;;;;;;;0.25;0.25;;;;;;;28.14;44.16;99075.50;5049946;28;20061;-56
2021/07/29 11:00:24;;;;;;;0.15;0.15;;;;;;;28.08;44.54;99074.50;5051164;28;20469;-57
2021/07/29 11:03:20;;;;;;;0.10;0.10;;;;;;;28.18;44.06;99082.06;5051349;28;20135;-59
2021/07/29 11:06:08;;;;;;;0.10;0.10;;;;;;;28.39;43.64;99063.78;5049916;28;20049;-59
2021/07/29 11:08:54;;;;;;;0.10;0.10;;;;;;;28.46;43.39;99063.72;5049874;28;20057;-59
2021/07/29 11:11:41;;;;;;;0.10;0.10;;;;;;;28.50;43.57;99070.28;5063513;28;20056;-58
2021/07/29 11:14:28;;;;;;;0.20;0.20;;;;;;;28.63;43.51;99064.81;5050867;28;20419;-60
2021/07/29 11:17:14;;;;;;;0.20;0.20;;;;;;;28.46;43.53;99066.41;5050793;28;20100;-59
2021/07/29 11:20:00;;;;;;;0.10;0.10;;;;;;;28.40;43.69;99065.41;5050875;28;20049;-59
2021/07/29 11:22:46;;;;;;;0.10;0.10;;;;;;;28.27;44.29;99064.69;5049426;28;20041;-59
2021/07/29 11:25:33;;;;;;;0.10;0.10;;;;;;;28.05;44.88;99064.16;5050700;28;20041;-59
2021/07/29 11:28:19;;;;;;;0.10;0.10;;;;;;;27.97;44.80;99071.66;5050762;28;20052;-59
2021/07/29 11:31:05;;;;;;;0.98;0.98;;;;;;;28.01;45.19;99070.19;5035720;28;20052;-59
2021/07/29 11:33:52;;;;;;;0.10;0.10;;;;;;;28.09;44.50;99056.53;5063231;28;20114;-60
2021/07/29 11:36:37;;;;;;;0.10;0.10;;;;;;;28.27;44.28;99043.22;5052721;28;20131;-59
2021/07/29 11:39:26;;;;;;;0.10;0.10;;;;;;;28.44;43.89;99052.34;5070389;28;20040;-59
2021/07/29 11:42:12;;;;;;;0.10;0.10;;;;;;;28.51;43.88;99061.19;5070445;28;20132;-59
2021/07/29 11:44:58;;;;;;;0.40;0.40;;;;;;;28.32;44.03;99040.69;5070334;28;20048;-58
2021/07/29 11:47:44;;;;;;;0.00;0.00;;;;;;;28.25;43.87;99056.00;5070042;28;20051;-60
2021/07/29 11:50:39;;;;;;;0.10;0.10;;;;;;;28.17;44.38;99058.97;5069464;28;20044;-59
2021/07/29 11:53:41;;;;;;;0.10;0.10;;;;;;;28.26;44.15;99045.06;5069992;28;20045;-59
2021/07/29 11:56:27;;;;;;;0.10;0.10;;;;;;;28.34;44.13;99052.84;5055613;28;20052;-59
2021/07/29 11:59:13;;;;;;;0.20;0.20;;;;;;;28.41;43.85;99050.09;5070145;28;20532;-59
2021/07/29 12:01:59;;;;;;;0.10;0.10;;;;;;;28.45;43.72;99046.78;5069678;28;20049;-59
2021/07/29 12:04:45;;;;;;;0.10;0.10;;;;;;;28.55;43.77;99062.41;5069886;28;20055;-60
2021/07/29 12:07:32;;;;;;;0.35;0.35;;;;;;;28.58;44.04;99061.97;5069863;28;20033;-60
2021/07/29 12:10:17;;;;;;;0.20;0.20;;;;;;;28.55;44.28;99062.41;5055186;28;20059;-59
2021/07/29 12:13:03;;;;;;;0.08;0.08;;;;;;;28.63;43.44;99042.50;5054923;28;20403;-60
2021/07/29 12:15:57;;;;;;;0.10;0.10;;;;;;;28.62;43.52;99019.38;5054645;28;20045;-59
2021/07/29 12:18:43;;;;;;;0.13;0.13;;;;;;;28.68;43.74;99040.84;5069873;28;20506;-60
2021/07/29 12:21:33;;;;;;;0.55;0.55;;;;;;;28.67;43.46;99038.34;5069715;28;20086;-59
2021/07/29 12:24:19;;;;;;;0.20;0.20;;;;;;;28.62;43.56;99036.31;5069925;28;20048;-59
2021/07/29 12:27:08;;;;;;;0.00;0.00;;;;;;;28.59;43.61;99035.94;5069793;28;20041;-57
2021/07/29 12:29:54;;;;;;;0.10;0.10;;;;;;;28.57;43.79;99043.38;5069642;28;20048;-56
2021/07/29 12:32:40;;;;;;;0.15;0.15;;;;;;;28.53;44.00;99021.53;5069307;28;20092;-58
2021/07/29 12:35:25;;;;;;;0.10;0.10;;;;;;;28.51;43.81;99022.75;5040791;28;20110;-59
2021/07/29 12:38:11;;;;;;;0.10;0.10;;;;;;;28.46;43.84;99020.75;5069334;28;20505;-57
2021/07/29 12:40:57;;;;;;;0.10;0.10;;;;;;;28.44;43.91;99017.44;5069360;28;20080;-57